Rake, Iowa
Current Conditions -  °F | °C
As of 1:55 PM on Saturday 25 Oct 2014 (Local Time) from KFXY Reporting Station
Clear Clear  
Wind Chill: 64°   Ceiling: Unl
Heat Index: 64°   Visibility: 10mi
Dew Point: 34°   Wind: 13mph
Humidity: 32%   Direction: 320°NW
Pressure: 30.09"   Gusts: NA
Location:  43.48°N, 93.92°W
Report Text: KFXY 251855Z AUTO 32011KT 10SM CLR 18/01 A3009 RMK AO2
Loading
Personal Weather Stations






























Interactive Weather Map
Tropical Storm Tracking
New forecast layout! Learn more

10-Day Weather Forecast

Advertisements
Track Severe Weather on mobile